sensor_id;sensor_type;location;lat;lon;timestamp;temperature;humidity
3055;DHT22;1537;52.018;8.542;2023-03-16T00:02:20;3.10;88.40
3055;DHT22;1537;52.018;8.542;2023-03-16T00:05:45;3.20;88.80
3055;DHT22;1537;52.018;8.542;2023-03-16T00:09:09;3.20;89.30
3055;DHT22;1537;52.018;8.542;2023-03-16T00:12:34;3.20;88.40
3055;DHT22;1537;52.018;8.542;2023-03-16T00:16:00;3.20;87.90
3055;DHT22;1537;52.018;8.542;2023-03-16T00:19:25;3.20;87.50
3055;DHT22;1537;52.018;8.542;2023-03-16T00:23:38;3.30;87.60
3055;DHT22;1537;52.018;8.542;2023-03-16T00:27:01;3.20;86.90
3055;DHT22;1537;52.018;8.542;2023-03-16T00:30:26;3.30;87.20
3055;DHT22;1537;52.018;8.542;2023-03-16T00:33:51;3.30;87.20
3055;DHT22;1537;52.018;8.542;2023-03-16T00:37:17;3.20;87.00
3055;DHT22;1537;52.018;8.542;2023-03-16T00:40:40;3.20;87.50
3055;DHT22;1537;52.018;8.542;2023-03-16T00:44:04;3.20;87.50
3055;DHT22;1537;52.018;8.542;2023-03-16T00:47:33;3.20;86.90
3055;DHT22;1537;52.018;8.542;2023-03-16T00:50:57;3.20;86.80
3055;DHT22;1537;52.018;8.542;2023-03-16T00:54:20;3.20;87.50
3055;DHT22;1537;52.018;8.542;2023-03-16T00:57:45;3.20;87.50
3055;DHT22;1537;52.018;8.542;2023-03-16T01:01:11;3.10;87.80
3055;DHT22;1537;52.018;8.542;2023-03-16T01:04:38;3.00;88.40
3055;DHT22;1537;52.018;8.542;2023-03-16T01:08:02;3.00;88.50
3055;DHT22;1537;52.018;8.542;2023-03-16T01:11:26;3.00;88.20
3055;DHT22;1537;52.018;8.542;2023-03-16T01:14:50;2.90;88.20
3055;DHT22;1537;52.018;8.542;2023-03-16T01:18:14;3.00;87.80
3055;DHT22;1537;52.018;8.542;2023-03-16T01:21:40;3.00;87.80
3055;DHT22;1537;52.018;8.542;2023-03-16T01:25:06;3.00;88.00
3055;DHT22;1537;52.018;8.542;2023-03-16T01:28:31;3.00;87.80
3055;DHT22;1537;52.018;8.542;2023-03-16T01:31:56;3.00;86.90
3055;DHT22;1537;52.018;8.542;2023-03-16T01:35:20;3.00;86.70
3055;DHT22;1537;52.018;8.542;2023-03-16T01:38:45;3.00;86.00
3055;DHT22;1537;52.018;8.542;2023-03-16T01:42:10;3.00;86.10
3055;DHT22;1537;52.018;8.542;2023-03-16T01:49:35;3.00;85.80
3055;DHT22;1537;52.018;8.542;2023-03-16T01:53:00;3.00;86.30
3055;DHT22;1537;52.018;8.542;2023-03-16T01:56:30;3.00;85.00
3055;DHT22;1537;52.018;8.542;2023-03-16T01:59:58;3.00;84.60
3055;DHT22;1537;52.018;8.542;2023-03-16T02:04:11;3.00;84.10
3055;DHT22;1537;52.018;8.542;2023-03-16T02:07:40;3.00;84.00
3055;DHT22;1537;52.018;8.542;2023-03-16T02:11:06;3.00;83.70
3055;DHT22;1537;52.018;8.542;2023-03-16T02:14:51;3.10;82.20
3055;DHT22;1537;52.018;8.542;2023-03-16T02:18:15;3.20;83.00
3055;DHT22;1537;52.018;8.542;2023-03-16T02:21:44;3.20;81.70
3055;DHT22;1537;52.018;8.542;2023-03-16T02:25:12;3.30;81.00
3055;DHT22;1537;52.018;8.542;2023-03-16T02:28:41;3.30;80.30
3055;DHT22;1537;52.018;8.542;2023-03-16T02:32:12;3.40;80.30
3055;DHT22;1537;52.018;8.542;2023-03-16T02:35:37;3.40;78.90
3055;DHT22;1537;52.018;8.542;2023-03-16T02:39:01;3.50;77.70
3055;DHT22;1537;52.018;8.542;2023-03-16T02:42:29;3.50;77.90
3055;DHT22;1537;52.018;8.542;2023-03-16T02:45:56;3.50;77.50
3055;DHT22;1537;52.018;8.542;2023-03-16T02:49:26;3.60;76.80
3055;DHT22;1537;52.018;8.542;2023-03-16T02:52:50;3.60;76.80
3055;DHT22;1537;52.018;8.542;2023-03-16T02:56:14;3.60;76.20
3055;DHT22;1537;52.018;8.542;2023-03-16T02:59:38;3.60;76.70
3055;DHT22;1537;52.018;8.542;2023-03-16T03:03:05;3.60;77.10
3055;DHT22;1537;52.018;8.542;2023-03-16T03:06:31;3.50;78.00
3055;DHT22;1537;52.018;8.542;2023-03-16T03:09:55;3.60;77.50
3055;DHT22;1537;52.018;8.542;2023-03-16T03:13:19;3.50;77.50
3055;DHT22;1537;52.018;8.542;2023-03-16T03:16:43;3.60;77.80
3055;DHT22;1537;52.018;8.542;2023-03-16T03:20:11;3.60;78.10
3055;DHT22;1537;52.018;8.542;2023-03-16T03:23:39;3.60;77.70
3055;DHT22;1537;52.018;8.542;2023-03-16T03:27:03;3.50;78.40
3055;DHT22;1537;52.018;8.542;2023-03-16T03:30:31;3.50;78.40
3055;DHT22;1537;52.018;8.542;2023-03-16T03:33:55;3.50;78.80
3055;DHT22;1537;52.018;8.542;2023-03-16T03:37:19;3.50;78.70
3055;DHT22;1537;52.018;8.542;2023-03-16T03:40:44;3.40;78.90
3055;DHT22;1537;52.018;8.542;2023-03-16T03:44:11;3.40;79.50
3055;DHT22;1537;52.018;8.542;2023-03-16T03:47:34;3.40;79.70
3055;DHT22;1537;52.018;8.542;2023-03-16T03:51:00;3.30;80.70
3055;DHT22;1537;52.018;8.542;2023-03-16T03:54:38;3.30;80.60
3055;DHT22;1537;52.018;8.542;2023-03-16T03:58:10;3.20;80.70
3055;DHT22;1537;52.018;8.542;2023-03-16T04:01:34;3.20;81.50
3055;DHT22;1537;52.018;8.542;2023-03-16T04:05:00;3.20;81.60
3055;DHT22;1537;52.018;8.542;2023-03-16T04:08:24;3.20;82.20
3055;DHT22;1537;52.018;8.542;2023-03-16T04:11:48;3.10;82.60
3055;DHT22;1537;52.018;8.542;2023-03-16T04:15:13;3.20;82.80
3055;DHT22;1537;52.018;8.542;2023-03-16T04:18:51;3.20;82.70
3055;DHT22;1537;52.018;8.542;2023-03-16T04:22:17;3.10;83.10
3055;DHT22;1537;52.018;8.542;2023-03-16T04:25:42;3.10;83.80
3055;DHT22;1537;52.018;8.542;2023-03-16T04:29:08;3.10;84.40
3055;DHT22;1537;52.018;8.542;2023-03-16T04:32:33;3.00;85.10
3055;DHT22;1537;52.018;8.542;2023-03-16T04:35:57;3.00;85.80
3055;DHT22;1537;52.018;8.542;2023-03-16T04:39:22;2.90;85.90
3055;DHT22;1537;52.018;8.542;2023-03-16T04:42:47;2.90;86.40
3055;DHT22;1537;52.018;8.542;2023-03-16T04:46:14;2.90;87.00
3055;DHT22;1537;52.018;8.542;2023-03-16T04:49:40;2.80;87.40
3055;DHT22;1537;52.018;8.542;2023-03-16T04:53:04;2.80;87.90
3055;DHT22;1537;52.018;8.542;2023-03-16T04:56:28;2.70;88.30
3055;DHT22;1537;52.018;8.542;2023-03-16T04:59:57;2.70;89.40
3055;DHT22;1537;52.018;8.542;2023-03-16T05:03:29;2.80;89.20
3055;DHT22;1537;52.018;8.542;2023-03-16T05:06:55;2.80;89.50
3055;DHT22;1537;52.018;8.542;2023-03-16T05:14:16;2.70;90.00
3055;DHT22;1537;52.018;8.542;2023-03-16T05:18:03;2.80;90.40
3055;DHT22;1537;52.018;8.542;2023-03-16T05:21:27;2.80;90.20
3055;DHT22;1537;52.018;8.542;2023-03-16T05:24:58;2.80;90.20
3055;DHT22;1537;52.018;8.542;2023-03-16T05:28:25;2.90;90.30
3055;DHT22;1537;52.018;8.542;2023-03-16T05:31:54;2.80;90.40
3055;DHT22;1537;52.018;8.542;2023-03-16T05:35:20;2.90;90.20
3055;DHT22;1537;52.018;8.542;2023-03-16T05:38:48;2.90;90.30
3055;DHT22;1537;52.018;8.542;2023-03-16T05:42:22;2.90;90.30
3055;DHT22;1537;52.018;8.542;2023-03-16T05:45:51;3.00;90.20
3055;DHT22;1537;52.018;8.542;2023-03-16T05:49:15;3.00;90.30
3055;DHT22;1537;52.018;8.542;2023-03-16T05:52:39;3.00;90.40
3055;DHT22;1537;52.018;8.542;2023-03-16T05:56:10;3.00;90.50
3055;DHT22;1537;52.018;8.542;2023-03-16T05:59:38;3.00;90.50
3055;DHT22;1537;52.018;8.542;2023-03-16T06:03:04;3.10;90.60
3055;DHT22;1537;52.018;8.542;2023-03-16T06:06:30;3.10;90.60
3055;DHT22;1537;52.018;8.542;2023-03-16T06:10:05;3.10;90.80
3055;DHT22;1537;52.018;8.542;2023-03-16T06:13:29;3.10;90.60
3055;DHT22;1537;52.018;8.542;2023-03-16T06:16:54;3.20;90.80
3055;DHT22;1537;52.018;8.542;2023-03-16T06:20:19;3.20;90.70
3055;DHT22;1537;52.018;8.542;2023-03-16T06:23:43;3.20;90.60
3055;DHT22;1537;52.018;8.542;2023-03-16T06:27:07;3.20;90.80
3055;DHT22;1537;52.018;8.542;2023-03-16T06:30:44;3.20;90.80
3055;DHT22;1537;52.018;8.542;2023-03-16T06:34:10;3.20;90.90
3055;DHT22;1537;52.018;8.542;2023-03-16T06:37:34;3.30;91.00
3055;DHT22;1537;52.018;8.542;2023-03-16T06:41:12;3.20;91.10
3055;DHT22;1537;52.018;8.542;2023-03-16T06:44:38;3.30;90.80
3055;DHT22;1537;52.018;8.542;2023-03-16T06:48:06;3.30;90.90
3055;DHT22;1537;52.018;8.542;2023-03-16T06:51:34;3.40;90.60
3055;DHT22;1537;52.018;8.542;2023-03-16T06:54:58;3.50;90.50
3055;DHT22;1537;52.018;8.542;2023-03-16T06:58:25;3.70;90.30
3055;DHT22;1537;52.018;8.542;2023-03-16T07:01:49;3.70;89.40
3055;DHT22;1537;52.018;8.542;2023-03-16T07:05:15;3.90;89.50
3055;DHT22;1537;52.018;8.542;2023-03-16T07:08:41;4.00;88.50
3055;DHT22;1537;52.018;8.542;2023-03-16T07:12:06;4.20;88.60
3055;DHT22;1537;52.018;8.542;2023-03-16T07:15:32;4.30;87.40
3055;DHT22;1537;52.018;8.542;2023-03-16T07:18:57;4.30;87.00
3055;DHT22;1537;52.018;8.542;2023-03-16T07:22:21;4.30;86.90
3055;DHT22;1537;52.018;8.542;2023-03-16T07:25:47;4.40;86.30
3055;DHT22;1537;52.018;8.542;2023-03-16T07:29:13;4.50;84.80
3055;DHT22;1537;52.018;8.542;2023-03-16T07:32:38;4.60;84.40
3055;DHT22;1537;52.018;8.542;2023-03-16T07:36:03;4.80;83.30
3055;DHT22;1537;52.018;8.542;2023-03-16T07:39:32;4.70;82.90
3055;DHT22;1537;52.018;8.542;2023-03-16T07:43:04;4.60;82.90
3055;DHT22;1537;52.018;8.542;2023-03-16T07:46:37;4.60;82.90
3055;DHT22;1537;52.018;8.542;2023-03-16T07:50:01;4.60;83.40
3055;DHT22;1537;52.018;8.542;2023-03-16T07:53:26;4.60;83.10
3055;DHT22;1537;52.018;8.542;2023-03-16T07:57:07;4.70;82.90
3055;DHT22;1537;52.018;8.542;2023-03-16T08:00:36;4.70;82.00
3055;DHT22;1537;52.018;8.542;2023-03-16T08:04:08;4.70;81.50
3055;DHT22;1537;52.018;8.542;2023-03-16T08:07:37;4.70;82.10
3055;DHT22;1537;52.018;8.542;2023-03-16T08:11:06;4.90;81.40
3055;DHT22;1537;52.018;8.542;2023-03-16T08:14:41;5.00;81.20
3055;DHT22;1537;52.018;8.542;2023-03-16T08:18:13;5.10;80.40
3055;DHT22;1537;52.018;8.542;2023-03-16T08:21:37;5.20;79.90
3055;DHT22;1537;52.018;8.542;2023-03-16T08:25:26;5.40;80.10
3055;DHT22;1537;52.018;8.542;2023-03-16T08:28:58;5.50;79.60
3055;DHT22;1537;52.018;8.542;2023-03-16T08:32:28;5.60;79.20
3055;DHT22;1537;52.018;8.542;2023-03-16T08:35:53;5.60;78.10
3055;DHT22;1537;52.018;8.542;2023-03-16T08:39:17;5.70;78.30
3055;DHT22;1537;52.018;8.542;2023-03-16T08:42:42;5.90;77.90
3055;DHT22;1537;52.018;8.542;2023-03-16T08:46:08;6.00;76.30
3055;DHT22;1537;52.018;8.542;2023-03-16T08:49:41;6.30;77.60
3055;DHT22;1537;52.018;8.542;2023-03-16T08:53:11;6.30;76.50
3055;DHT22;1537;52.018;8.542;2023-03-16T08:56:35;6.50;75.40
3055;DHT22;1537;52.018;8.542;2023-03-16T08:59:59;6.60;75.30
3055;DHT22;1537;52.018;8.542;2023-03-16T09:03:25;7.10;73.30
3055;DHT22;1537;52.018;8.542;2023-03-16T09:06:49;7.70;70.70
3055;DHT22;1537;52.018;8.542;2023-03-16T09:10:30;7.80;70.50
3055;DHT22;1537;52.018;8.542;2023-03-16T09:13:55;8.00;69.90
3055;DHT22;1537;52.018;8.542;2023-03-16T09:17:19;8.10;68.60
3055;DHT22;1537;52.018;8.542;2023-03-16T09:20:43;8.00;68.80
3055;DHT22;1537;52.018;8.542;2023-03-16T09:24:09;8.90;66.20
3055;DHT22;1537;52.018;8.542;2023-03-16T09:27:34;9.30;63.60
3055;DHT22;1537;52.018;8.542;2023-03-16T09:30:58;9.30;61.60
3055;DHT22;1537;52.018;8.542;2023-03-16T09:34:22;9.10;63.60
3055;DHT22;1537;52.018;8.542;2023-03-16T09:37:46;9.30;61.50
3055;DHT22;1537;52.018;8.542;2023-03-16T09:41:38;9.30;62.50
3055;DHT22;1537;52.018;8.542;2023-03-16T09:45:14;10.60;58.80
3055;DHT22;1537;52.018;8.542;2023-03-16T09:48:42;10.80;56.50
3055;DHT22;1537;52.018;8.542;2023-03-16T09:52:17;10.50;56.70
3055;DHT22;1537;52.018;8.542;2023-03-16T09:55:45;9.90;58.10
3055;DHT22;1537;52.018;8.542;2023-03-16T09:59:13;9.60;59.80
3055;DHT22;1537;52.018;8.542;2023-03-16T10:02:58;9.40;59.70
3055;DHT22;1537;52.018;8.542;2023-03-16T10:06:25;9.50;60.30
3055;DHT22;1537;52.018;8.542;2023-03-16T10:09:55;10.00;58.30
3055;DHT22;1537;52.018;8.542;2023-03-16T10:13:28;10.40;59.20
3055;DHT22;1537;52.018;8.542;2023-03-16T10:16:56;10.30;57.10
3055;DHT22;1537;52.018;8.542;2023-03-16T10:20:24;9.60;59.50
3055;DHT22;1537;52.018;8.542;2023-03-16T10:23:51;9.70;59.40
3055;DHT22;1537;52.018;8.542;2023-03-16T10:27:19;9.90;59.60
3055;DHT22;1537;52.018;8.542;2023-03-16T10:30:47;9.60;59.90
3055;DHT22;1537;52.018;8.542;2023-03-16T10:34:12;9.30;60.30
3055;DHT22;1537;52.018;8.542;2023-03-16T10:37:37;9.40;60.90
3055;DHT22;1537;52.018;8.542;2023-03-16T10:41:01;9.40;60.50
3055;DHT22;1537;52.018;8.542;2023-03-16T10:44:27;9.40;60.70
3055;DHT22;1537;52.018;8.542;2023-03-16T10:47:51;9.60;60.70
3055;DHT22;1537;52.018;8.542;2023-03-16T10:51:16;9.90;58.70
3055;DHT22;1537;52.018;8.542;2023-03-16T10:54:48;10.10;58.60
3055;DHT22;1537;52.018;8.542;2023-03-16T10:58:22;9.90;58.80
3055;DHT22;1537;52.018;8.542;2023-03-16T11:01:47;10.00;57.60
3055;DHT22;1537;52.018;8.542;2023-03-16T11:05:26;10.60;56.90
3055;DHT22;1537;52.018;8.542;2023-03-16T11:08:52;10.50;56.40
3055;DHT22;1537;52.018;8.542;2023-03-16T11:12:23;10.10;57.70
3055;DHT22;1537;52.018;8.542;2023-03-16T11:15:50;9.80;59.40
3055;DHT22;1537;52.018;8.542;2023-03-16T11:19:22;10.20;57.00
3055;DHT22;1537;52.018;8.542;2023-03-16T11:22:47;9.60;58.40
3055;DHT22;1537;52.018;8.542;2023-03-16T11:26:16;9.20;59.40
3055;DHT22;1537;52.018;8.542;2023-03-16T11:29:58;8.90;60.10
3055;DHT22;1537;52.018;8.542;2023-03-16T11:33:26;8.90;60.70
3055;DHT22;1537;52.018;8.542;2023-03-16T11:36:54;9.20;61.90
3055;DHT22;1537;52.018;8.542;2023-03-16T11:40:28;9.40;60.30
3055;DHT22;1537;52.018;8.542;2023-03-16T11:43:56;9.20;60.30
3055;DHT22;1537;52.018;8.542;2023-03-16T11:48:02;9.20;59.60
3055;DHT22;1537;52.018;8.542;2023-03-16T11:51:34;9.30;59.60
3055;DHT22;1537;52.018;8.542;2023-03-16T11:55:15;9.40;59.80
3055;DHT22;1537;52.018;8.542;2023-03-16T11:59:00;9.30;60.00
3055;DHT22;1537;52.018;8.542;2023-03-16T12:02:35;9.20;60.70
3055;DHT22;1537;52.018;8.542;2023-03-16T12:06:12;9.00;60.80
3055;DHT22;1537;52.018;8.542;2023-03-16T12:10:02;9.20;62.30
3055;DHT22;1537;52.018;8.542;2023-03-16T12:13:42;8.90;61.10
3055;DHT22;1537;52.018;8.542;2023-03-16T12:17:14;8.60;61.20
3055;DHT22;1537;52.018;8.542;2023-03-16T12:20:46;8.80;61.70
3055;DHT22;1537;52.018;8.542;2023-03-16T12:24:16;8.90;61.40
3055;DHT22;1537;52.018;8.542;2023-03-16T12:27:42;8.90;60.40
3055;DHT22;1537;52.018;8.542;2023-03-16T12:31:09;8.80;60.00
3055;DHT22;1537;52.018;8.542;2023-03-16T12:34:40;8.80;60.00
3055;DHT22;1537;52.018;8.542;2023-03-16T12:38:17;8.80;59.90
3055;DHT22;1537;52.018;8.542;2023-03-16T12:41:54;8.90;59.50
3055;DHT22;1537;52.018;8.542;2023-03-16T12:45:29;8.80;59.30
3055;DHT22;1537;52.018;8.542;2023-03-16T12:48:58;8.80;58.90
3055;DHT22;1537;52.018;8.542;2023-03-16T12:52:23;8.90;59.80
3055;DHT22;1537;52.018;8.542;2023-03-16T12:55:47;9.00;57.50
3055;DHT22;1537;52.018;8.542;2023-03-16T12:59:17;9.00;57.80
3055;DHT22;1537;52.018;8.542;2023-03-16T13:02:45;9.20;57.40
3055;DHT22;1537;52.018;8.542;2023-03-16T13:06:20;9.10;55.50
3055;DHT22;1537;52.018;8.542;2023-03-16T13:09:47;9.00;56.10
3055;DHT22;1537;52.018;8.542;2023-03-16T13:13:15;8.80;56.10
3055;DHT22;1537;52.018;8.542;2023-03-16T13:16:41;8.70;56.00
3055;DHT22;1537;52.018;8.542;2023-03-16T13:20:23;8.70;56.50
3055;DHT22;1537;52.018;8.542;2023-03-16T13:23:56;8.90;56.40
3055;DHT22;1537;52.018;8.542;2023-03-16T13:27:24;8.90;56.30
3055;DHT22;1537;52.018;8.542;2023-03-16T13:30:49;8.80;55.80
3055;DHT22;1537;52.018;8.542;2023-03-16T13:34:21;8.80;56.10
3055;DHT22;1537;52.018;8.542;2023-03-16T13:37:45;9.00;55.90
3055;DHT22;1537;52.018;8.542;2023-03-16T13:41:10;9.20;56.10
3055;DHT22;1537;52.018;8.542;2023-03-16T13:44:38;9.40;55.70
3055;DHT22;1537;52.018;8.542;2023-03-16T13:48:03;9.80;56.40
3055;DHT22;1537;52.018;8.542;2023-03-16T13:51:32;9.50;55.80
3055;DHT22;1537;52.018;8.542;2023-03-16T13:54:57;9.50;57.10
3055;DHT22;1537;52.018;8.542;2023-03-16T13:58:25;9.80;56.80
3055;DHT22;1537;52.018;8.542;2023-03-16T14:01:55;9.80;56.30
3055;DHT22;1537;52.018;8.542;2023-03-16T14:05:23;9.50;55.90
3055;DHT22;1537;52.018;8.542;2023-03-16T14:08:50;9.50;56.60
3055;DHT22;1537;52.018;8.542;2023-03-16T14:12:17;9.60;56.80
3055;DHT22;1537;52.018;8.542;2023-03-16T14:15:41;9.40;56.20
3055;DHT22;1537;52.018;8.542;2023-03-16T14:19:15;9.40;55.30
3055;DHT22;1537;52.018;8.542;2023-03-16T14:22:40;9.40;54.70
3055;DHT22;1537;52.018;8.542;2023-03-16T14:26:11;9.40;55.50
3055;DHT22;1537;52.018;8.542;2023-03-16T14:29:35;9.30;56.10
3055;DHT22;1537;52.018;8.542;2023-03-16T14:33:01;9.30;55.70
3055;DHT22;1537;52.018;8.542;2023-03-16T14:36:34;9.20;56.30
3055;DHT22;1537;52.018;8.542;2023-03-16T14:40:01;9.20;55.50
3055;DHT22;1537;52.018;8.542;2023-03-16T14:43:30;9.20;55.50
3055;DHT22;1537;52.018;8.542;2023-03-16T14:46:55;9.10;55.10
3055;DHT22;1537;52.018;8.542;2023-03-16T14:50:22;9.10;55.40
3055;DHT22;1537;52.018;8.542;2023-03-16T14:53:46;9.30;55.00
3055;DHT22;1537;52.018;8.542;2023-03-16T14:57:15;9.50;54.90
3055;DHT22;1537;52.018;8.542;2023-03-16T15:00:41;9.50;55.10
3055;DHT22;1537;52.018;8.542;2023-03-16T15:04:16;9.50;53.00
3055;DHT22;1537;52.018;8.542;2023-03-16T15:07:42;9.30;53.40
3055;DHT22;1537;52.018;8.542;2023-03-16T15:11:06;9.40;53.60
3055;DHT22;1537;52.018;8.542;2023-03-16T15:14:30;9.50;53.30
3055;DHT22;1537;52.018;8.542;2023-03-16T15:18:13;9.50;52.50
3055;DHT22;1537;52.018;8.542;2023-03-16T15:21:37;9.50;52.40
3055;DHT22;1537;52.018;8.542;2023-03-16T15:25:09;9.40;50.90
3055;DHT22;1537;52.018;8.542;2023-03-16T15:28:40;9.40;50.80
3055;DHT22;1537;52.018;8.542;2023-03-16T15:32:07;9.50;50.20
3055;DHT22;1537;52.018;8.542;2023-03-16T15:35:34;9.40;50.60
3055;DHT22;1537;52.018;8.542;2023-03-16T15:38:59;9.30;50.80
3055;DHT22;1537;52.018;8.542;2023-03-16T15:42:23;9.30;51.30
3055;DHT22;1537;52.018;8.542;2023-03-16T15:45:49;9.40;53.20
3055;DHT22;1537;52.018;8.542;2023-03-16T15:49:13;9.40;55.50
3055;DHT22;1537;52.018;8.542;2023-03-16T15:52:40;9.50;54.70
3055;DHT22;1537;52.018;8.542;2023-03-16T15:56:06;9.60;53.50
3055;DHT22;1537;52.018;8.542;2023-03-16T15:59:33;9.50;53.40
3055;DHT22;1537;52.018;8.542;2023-03-16T16:03:00;9.50;52.50
3055;DHT22;1537;52.018;8.542;2023-03-16T16:06:25;9.50;53.10
3055;DHT22;1537;52.018;8.542;2023-03-16T16:09:53;9.50;55.00
3055;DHT22;1537;52.018;8.542;2023-03-16T16:13:18;9.50;56.80
3055;DHT22;1537;52.018;8.542;2023-03-16T16:16:46;9.30;56.50
3055;DHT22;1537;52.018;8.542;2023-03-16T16:20:16;9.40;57.90
3055;DHT22;1537;52.018;8.542;2023-03-16T16:23:41;9.30;56.80
3055;DHT22;1537;52.018;8.542;2023-03-16T16:27:09;9.30;56.90
3055;DHT22;1537;52.018;8.542;2023-03-16T16:30:33;9.20;57.80
3055;DHT22;1537;52.018;8.542;2023-03-16T16:33:58;9.20;57.10
3055;DHT22;1537;52.018;8.542;2023-03-16T16:37:22;9.30;57.40
3055;DHT22;1537;52.018;8.542;2023-03-16T16:40:46;9.20;56.80
3055;DHT22;1537;52.018;8.542;2023-03-16T16:44:16;9.10;57.30
3055;DHT22;1537;52.018;8.542;2023-03-16T16:47:41;9.00;57.50
3055;DHT22;1537;52.018;8.542;2023-03-16T16:51:05;9.00;58.20
3055;DHT22;1537;52.018;8.542;2023-03-16T16:54:30;9.00;59.40
3055;DHT22;1537;52.018;8.542;2023-03-16T16:57:53;8.90;59.50
3055;DHT22;1537;52.018;8.542;2023-03-16T17:01:24;8.90;60.30
3055;DHT22;1537;52.018;8.542;2023-03-16T17:04:48;8.90;60.90
3055;DHT22;1537;52.018;8.542;2023-03-16T17:08:13;8.90;61.00
3055;DHT22;1537;52.018;8.542;2023-03-16T17:11:37;8.80;61.10
3055;DHT22;1537;52.018;8.542;2023-03-16T17:15:01;8.80;61.40
3055;DHT22;1537;52.018;8.542;2023-03-16T17:18:26;8.70;62.20
3055;DHT22;1537;52.018;8.542;2023-03-16T17:21:53;8.70;63.00
3055;DHT22;1537;52.018;8.542;2023-03-16T17:25:17;8.80;63.80
3055;DHT22;1537;52.018;8.542;2023-03-16T17:28:42;8.70;64.30
3055;DHT22;1537;52.018;8.542;2023-03-16T17:32:16;8.60;65.10
3055;DHT22;1537;52.018;8.542;2023-03-16T17:35:43;8.60;66.30
3055;DHT22;1537;52.018;8.542;2023-03-16T17:39:15;8.50;67.00
3055;DHT22;1537;52.018;8.542;2023-03-16T17:42:39;8.50;68.10
3055;DHT22;1537;52.018;8.542;2023-03-16T17:46:04;8.50;69.20
3055;DHT22;1537;52.018;8.542;2023-03-16T17:49:28;8.50;69.60
3055;DHT22;1537;52.018;8.542;2023-03-16T17:52:55;8.40;70.50
3055;DHT22;1537;52.018;8.542;2023-03-16T17:56:20;8.40;71.40
3055;DHT22;1537;52.018;8.542;2023-03-16T17:59:45;8.30;71.80
3055;DHT22;1537;52.018;8.542;2023-03-16T18:03:11;8.30;72.90
3055;DHT22;1537;52.018;8.542;2023-03-16T18:06:35;8.30;73.50
3055;DHT22;1537;52.018;8.542;2023-03-16T18:10:01;8.20;74.20
3055;DHT22;1537;52.018;8.542;2023-03-16T18:13:26;8.20;74.40
3055;DHT22;1537;52.018;8.542;2023-03-16T18:16:51;8.10;74.90
3055;DHT22;1537;52.018;8.542;2023-03-16T18:20:21;8.10;76.40
3055;DHT22;1537;52.018;8.542;2023-03-16T18:23:46;8.10;75.90
3055;DHT22;1537;52.018;8.542;2023-03-16T18:27:11;8.00;76.30
3055;DHT22;1537;52.018;8.542;2023-03-16T18:30:36;8.00;77.50
3055;DHT22;1537;52.018;8.542;2023-03-16T18:34:02;8.00;78.40
3055;DHT22;1537;52.018;8.542;2023-03-16T18:37:27;8.00;79.00
3055;DHT22;1537;52.018;8.542;2023-03-16T18:40:51;7.90;79.60
3055;DHT22;1537;52.018;8.542;2023-03-16T18:44:18;7.90;80.50
3055;DHT22;1537;52.018;8.542;2023-03-16T18:47:48;7.90;81.30
3055;DHT22;1537;52.018;8.542;2023-03-16T18:51:13;7.90;82.20
3055;DHT22;1537;52.018;8.542;2023-03-16T18:54:38;7.90;82.90
3055;DHT22;1537;52.018;8.542;2023-03-16T18:58:04;7.90;83.40
3055;DHT22;1537;52.018;8.542;2023-03-16T19:01:39;7.90;84.00
3055;DHT22;1537;52.018;8.542;2023-03-16T19:05:07;7.90;84.60
3055;DHT22;1537;52.018;8.542;2023-03-16T19:08:33;7.90;85.20
3055;DHT22;1537;52.018;8.542;2023-03-16T19:11:57;7.90;85.50
3055;DHT22;1537;52.018;8.542;2023-03-16T19:15:24;7.90;85.80
3055;DHT22;1537;52.018;8.542;2023-03-16T19:18:49;7.90;86.30
3055;DHT22;1537;52.018;8.542;2023-03-16T19:22:15;7.90;86.50
3055;DHT22;1537;52.018;8.542;2023-03-16T19:25:40;8.00;86.90
3055;DHT22;1537;52.018;8.542;2023-03-16T19:29:04;7.90;87.00
3055;DHT22;1537;52.018;8.542;2023-03-16T19:32:28;7.90;87.50
3055;DHT22;1537;52.018;8.542;2023-03-16T19:35:54;7.90;88.40
3055;DHT22;1537;52.018;8.542;2023-03-16T19:39:18;7.90;88.20
3055;DHT22;1537;52.018;8.542;2023-03-16T19:42:43;7.80;88.50
3055;DHT22;1537;52.018;8.542;2023-03-16T19:46:08;7.90;88.70
3055;DHT22;1537;52.018;8.542;2023-03-16T19:49:35;7.80;88.80
3055;DHT22;1537;52.018;8.542;2023-03-16T19:53:00;7.80;89.00
3055;DHT22;1537;52.018;8.542;2023-03-16T19:56:23;7.80;89.30
3055;DHT22;1537;52.018;8.542;2023-03-16T19:59:52;7.80;89.40
3055;DHT22;1537;52.018;8.542;2023-03-16T20:03:16;7.70;89.70
3055;DHT22;1537;52.018;8.542;2023-03-16T20:06:42;7.80;90.00
3055;DHT22;1537;52.018;8.542;2023-03-16T20:10:08;7.60;90.00
3055;DHT22;1537;52.018;8.542;2023-03-16T20:13:34;7.70;90.20
3055;DHT22;1537;52.018;8.542;2023-03-16T20:16:58;7.60;90.30
3055;DHT22;1537;52.018;8.542;2023-03-16T20:20:25;7.60;90.30
3055;DHT22;1537;52.018;8.542;2023-03-16T20:23:52;7.60;90.40
3055;DHT22;1537;52.018;8.542;2023-03-16T20:27:18;7.60;90.40
3055;DHT22;1537;52.018;8.542;2023-03-16T20:30:43;7.60;90.40
3055;DHT22;1537;52.018;8.542;2023-03-16T20:34:17;7.60;90.40
3055;DHT22;1537;52.018;8.542;2023-03-16T20:37:41;7.60;90.30
3055;DHT22;1537;52.018;8.542;2023-03-16T20:41:11;7.60;90.30
3055;DHT22;1537;52.018;8.542;2023-03-16T20:44:36;7.60;90.20
3055;DHT22;1537;52.018;8.542;2023-03-16T20:48:00;7.60;90.60
3055;DHT22;1537;52.018;8.542;2023-03-16T20:51:24;7.60;90.20
3055;DHT22;1537;52.018;8.542;2023-03-16T20:54:48;7.70;90.10
3055;DHT22;1537;52.018;8.542;2023-03-16T20:58:17;7.70;90.00
3055;DHT22;1537;52.018;8.542;2023-03-16T21:01:43;7.70;90.10
3055;DHT22;1537;52.018;8.542;2023-03-16T21:05:11;7.70;89.90
3055;DHT22;1537;52.018;8.542;2023-03-16T21:08:35;7.70;89.90
3055;DHT22;1537;52.018;8.542;2023-03-16T21:11:59;7.70;89.80
3055;DHT22;1537;52.018;8.542;2023-03-16T21:15:24;7.70;89.60
3055;DHT22;1537;52.018;8.542;2023-03-16T21:18:51;7.80;89.70
3055;DHT22;1537;52.018;8.542;2023-03-16T21:22:23;7.80;89.20
3055;DHT22;1537;52.018;8.542;2023-03-16T21:25:50;7.80;89.30
3055;DHT22;1537;52.018;8.542;2023-03-16T21:29:18;7.80;89.70
3055;DHT22;1537;52.018;8.542;2023-03-16T21:32:43;7.80;89.20
3055;DHT22;1537;52.018;8.542;2023-03-16T21:36:13;7.80;89.90
3055;DHT22;1537;52.018;8.542;2023-03-16T21:39:37;7.70;89.50
3055;DHT22;1537;52.018;8.542;2023-03-16T21:43:00;7.70;89.20
3055;DHT22;1537;52.018;8.542;2023-03-16T21:46:24;7.90;89.50
3055;DHT22;1537;52.018;8.542;2023-03-16T21:49:48;7.80;89.30
3055;DHT22;1537;52.018;8.542;2023-03-16T21:53:19;7.80;89.40
3055;DHT22;1537;52.018;8.542;2023-03-16T21:56:44;7.80;89.20
3055;DHT22;1537;52.018;8.542;2023-03-16T22:00:14;7.80;89.20
3055;DHT22;1537;52.018;8.542;2023-03-16T22:03:38;7.80;89.10
3055;DHT22;1537;52.018;8.542;2023-03-16T22:07:13;7.80;89.00
3055;DHT22;1537;52.018;8.542;2023-03-16T22:10:39;7.80;89.20
3055;DHT22;1537;52.018;8.542;2023-03-16T22:14:03;7.80;89.00
3055;DHT22;1537;52.018;8.542;2023-03-16T22:17:31;7.80;88.80
3055;DHT22;1537;52.018;8.542;2023-03-16T22:20:56;7.90;88.70
3055;DHT22;1537;52.018;8.542;2023-03-16T22:24:22;7.90;88.80
3055;DHT22;1537;52.018;8.542;2023-03-16T22:27:48;7.90;88.70
3055;DHT22;1537;52.018;8.542;2023-03-16T22:31:14;7.90;88.70
3055;DHT22;1537;52.018;8.542;2023-03-16T22:34:41;7.80;88.40
3055;DHT22;1537;52.018;8.542;2023-03-16T22:38:08;7.90;88.20
3055;DHT22;1537;52.018;8.542;2023-03-16T22:41:34;8.00;87.90
3055;DHT22;1537;52.018;8.542;2023-03-16T22:44:59;7.90;87.90
3055;DHT22;1537;52.018;8.542;2023-03-16T22:48:25;7.90;87.70
3055;DHT22;1537;52.018;8.542;2023-03-16T22:51:50;7.90;87.80
3055;DHT22;1537;52.018;8.542;2023-03-16T22:55:18;7.90;87.80
3055;DHT22;1537;52.018;8.542;2023-03-16T22:58:45;7.90;87.80
3055;DHT22;1537;52.018;8.542;2023-03-16T23:02:12;7.90;87.70
3055;DHT22;1537;52.018;8.542;2023-03-16T23:05:37;7.90;87.70